Time;durP1;ratioP1;P1;durP2;ratioP2;P2;SDS_P1;SDS_P2;PMS_P1;PMS_P2;Temp;Humidity;BMP_temperature;BMP_pressure;BME280_temperature;BME280_humidity;BME280_pressure;Samples;Min_cycle;Max_cycle;Signal;HPM_P1;HPM_P2
2021/08/05 00:01:07;;;;;;;6.35;3.45;;;;;;;18.96;92.03;95844.56;5058497;28;21293;-71
2021/08/05 00:03:34;;;;;;;8.20;3.35;;;;;;;18.79;91.00;95849.03;5059068;28;20207;-71
2021/08/05 00:06:00;;;;;;;9.00;3.33;;;;;;;19.01;90.82;95847.34;5058333;28;20196;-71
2021/08/05 00:08:27;;;;;;;6.75;3.35;;;;;;;18.72;91.13;95852.88;5058763;28;20204;-71
2021/08/05 00:10:55;;;;;;;6.50;2.70;;;;;;;18.77;90.58;95853.78;5058485;28;20207;-71
2021/08/05 00:13:21;;;;;;;8.13;2.70;;;;;;;18.73;90.83;95855.31;5058476;28;20700;-71
2021/08/05 00:15:48;;;;;;;9.60;3.22;;;;;;;18.70;91.04;95854.97;5057794;28;20232;-71
2021/08/05 00:18:14;;;;;;;7.88;2.88;;;;;;;18.65;90.90;95863.69;5058358;28;20223;-71
2021/08/05 00:20:40;;;;;;;8.50;3.25;;;;;;;18.39;93.07;95858.88;5057882;28;20208;-71
2021/08/05 00:23:07;;;;;;;9.73;3.78;;;;;;;18.39;93.25;95861.53;5058101;28;20708;-71
2021/08/05 00:25:34;;;;;;;7.97;3.20;;;;;;;18.35;93.79;95857.72;5057414;28;20201;-71
2021/08/05 00:28:01;;;;;;;7.97;3.20;;;;;;;18.77;93.65;95858.34;5058379;28;20219;-71
2021/08/05 00:30:29;;;;;;;13.40;3.47;;;;;;;18.55;93.84;95862.69;5058020;28;20200;-71
2021/08/05 00:32:56;;;;;;;8.32;3.10;;;;;;;18.59;91.44;95859.28;5058007;28;20224;-71
2021/08/05 00:35:22;;;;;;;9.60;2.80;;;;;;;18.61;93.08;95862.56;5057664;28;20203;-71
2021/08/05 00:37:49;;;;;;;21.58;3.20;;;;;;;18.24;92.33;95860.41;5058110;28;20215;-72
2021/08/05 00:40:15;;;;;;;6.40;2.47;;;;;;;18.20;91.75;95853.09;5054454;28;20200;-71
2021/08/05 00:42:42;;;;;;;7.95;2.70;;;;;;;18.42;91.37;95852.25;5057547;28;20224;-71
2021/08/05 00:45:11;;;;;;;10.90;2.78;;;;;;;18.54;91.95;95848.50;5058141;28;20232;-71
2021/08/05 00:47:37;;;;;;;5.78;2.58;;;;;;;18.42;92.00;95849.59;5057675;28;20203;-71
2021/08/05 00:50:04;;;;;;;7.18;2.30;;;;;;;18.43;91.27;95841.34;5057645;28;20668;-71
2021/08/05 00:52:31;;;;;;;12.35;2.25;;;;;;;18.37;92.33;95844.94;5057438;28;20229;-71
2021/08/05 00:54:57;;;;;;;5.50;2.10;;;;;;;18.08;91.50;95845.06;5058163;28;20201;-70
2021/08/05 00:57:24;;;;;;;6.88;2.50;;;;;;;18.07;92.56;95839.97;5056771;28;20196;-71
2021/08/05 00:59:50;;;;;;;3.80;2.05;;;;;;;18.09;91.33;95841.34;5057383;28;20200;-71
2021/08/05 01:02:20;;;;;;;6.18;2.42;;;;;;;18.08;92.11;95836.25;5057192;28;20220;-70
2021/08/05 01:04:49;;;;;;;10.52;2.40;;;;;;;18.19;93.47;95833.63;5056816;28;20232;-71
2021/08/05 01:07:20;;;;;;;5.88;1.80;;;;;;;17.87;93.57;95834.16;5057056;28;20390;-70
2021/08/05 01:09:56;;;;;;;10.18;2.00;;;;;;;18.25;92.49;95834.53;5056744;28;20287;-71
2021/08/05 01:12:27;;;;;;;8.82;1.80;;;;;;;18.37;92.99;95834.28;5057473;28;20231;-71
2021/08/05 01:15:01;;;;;;;15.13;2.20;;;;;;;18.03;93.14;95841.47;5057097;28;20196;-70
2021/08/05 01:17:31;;;;;;;7.45;1.70;;;;;;;18.07;93.79;95845.28;5056746;28;20732;-70
2021/08/05 01:20:00;;;;;;;6.00;1.90;;;;;;;18.30;94.87;95837.31;5057619;28;20212;-70
2021/08/05 01:22:35;;;;;;;4.00;1.80;;;;;;;18.56;93.01;95835.75;5058235;28;20221;-70
2021/08/05 01:25:07;;;;;;;7.40;1.80;;;;;;;18.36;92.16;95837.97;5056616;28;20200;-71
2021/08/05 01:27:37;;;;;;;5.45;1.80;;;;;;;18.45;93.82;95833.91;5056367;28;20211;-70
2021/08/05 01:30:05;;;;;;;5.45;1.85;;;;;;;18.32;93.64;95838.69;5057206;28;20211;-71
2021/08/05 01:32:32;;;;;;;6.32;1.70;;;;;;;18.22;93.19;95835.00;5056535;28;20722;-71
2021/08/05 01:34:59;;;;;;;7.72;1.65;;;;;;;18.28;93.49;95828.72;5057223;28;20212;-70
2021/08/05 01:37:26;;;;;;;18.08;4.03;;;;;;;18.18;94.23;95828.53;5056780;28;20559;-71
2021/08/05 01:39:54;;;;;;;7.40;2.35;;;;;;;18.21;93.08;95828.03;5053558;28;20196;-71
2021/08/05 01:42:22;;;;;;;8.25;2.25;;;;;;;18.40;92.89;95828.47;5056446;28;20711;-71
2021/08/05 01:44:52;;;;;;;8.80;2.25;;;;;;;18.43;93.82;95820.00;5057064;28;20227;-71
2021/08/05 01:47:20;;;;;;;9.30;2.53;;;;;;;18.56;93.70;95817.06;5056456;28;20572;-70
2021/08/05 01:49:47;;;;;;;4.07;2.00;;;;;;;18.55;93.18;95815.44;5056760;28;20709;-71
2021/08/05 01:52:14;;;;;;;7.03;2.50;;;;;;;18.58;94.46;95820.34;5057746;28;20227;-71
2021/08/05 01:54:41;;;;;;;8.57;2.63;;;;;;;18.49;94.62;95815.56;5056958;28;20200;-71
2021/08/05 01:57:10;;;;;;;7.43;3.35;;;;;;;18.59;93.12;95815.78;5056526;28;20204;-71
2021/08/05 01:59:36;;;;;;;9.88;3.05;;;;;;;18.33;93.55;95811.00;5059912;28;20200;-70
2021/08/05 02:02:04;;;;;;;8.65;3.33;;;;;;;18.52;93.33;95815.09;5061605;28;20228;-71
2021/08/05 02:04:42;;;;;;;4.75;3.60;;;;;;;18.56;93.93;95813.59;5060534;28;20200;-71
2021/08/05 02:07:13;;;;;;;10.10;3.72;;;;;;;18.55;93.59;95809.31;5060207;28;20919;-71
2021/08/05 02:09:47;;;;;;;10.10;3.58;;;;;;;18.59;94.16;95808.59;5061176;28;20211;-71
2021/08/05 02:12:13;;;;;;;10.70;3.10;;;;;;;18.37;94.29;95807.59;5060719;28;20219;-71
2021/08/05 02:14:40;;;;;;;11.90;3.25;;;;;;;18.56;94.82;95797.59;5060154;28;20212;-71
2021/08/05 02:17:10;;;;;;;16.17;3.47;;;;;;;18.65;93.66;95794.31;5060377;28;20219;-71
2021/08/05 02:19:37;;;;;;;12.70;2.80;;;;;;;18.54;92.04;95795.13;5060470;28;20234;-71
2021/08/05 02:22:05;;;;;;;8.07;2.60;;;;;;;18.11;93.74;95791.25;5060777;28;20224;-71
2021/08/05 02:24:34;;;;;;;5.32;2.40;;;;;;;18.55;93.05;95787.97;5061256;28;20197;-71
2021/08/05 02:27:01;;;;;;;7.38;2.13;;;;;;;18.45;93.75;95791.22;5059780;28;20196;-71
2021/08/05 02:29:28;;;;;;;6.28;2.45;;;;;;;18.44;94.65;95800.28;5060466;28;20196;-71
2021/08/05 02:31:56;;;;;;;6.45;2.25;;;;;;;18.38;93.34;95801.22;5061091;28;20221;-71
2021/08/05 02:34:24;;;;;;;4.93;2.30;;;;;;;18.10;94.59;95794.97;5059920;28;20217;-71
2021/08/05 02:36:51;;;;;;;6.60;2.35;;;;;;;18.16;94.63;95801.22;5058899;28;20200;-71
2021/08/05 02:39:18;;;;;;;8.07;2.50;;;;;;;18.16;94.52;95803.88;5057313;28;20197;-71
2021/08/05 02:41:45;;;;;;;14.77;2.50;;;;;;;18.24;95.58;95795.56;5059822;28;20739;-71
2021/08/05 02:44:11;;;;;;;3.70;2.67;;;;;;;17.78;94.95;95795.56;5060311;28;20208;-71
2021/08/05 02:46:38;;;;;;;7.75;2.97;;;;;;;17.99;95.69;95800.31;5059551;28;20201;-71
2021/08/05 02:49:05;;;;;;;9.88;2.60;;;;;;;17.95;95.25;95802.63;5057062;28;20207;-71
2021/08/05 02:51:33;;;;;;;10.70;3.20;;;;;;;18.24;95.33;95800.91;5059543;28;20220;-71
2021/08/05 02:54:00;;;;;;;3.45;2.55;;;;;;;18.23;95.29;95804.59;5060019;28;20232;-71
2021/08/05 02:56:27;;;;;;;12.60;2.78;;;;;;;18.23;94.97;95799.25;5059020;28;20203;-71
2021/08/05 02:58:54;;;;;;;10.35;4.05;;;;;;;18.25;95.01;95799.84;5059838;28;20196;-71
2021/08/05 03:01:22;;;;;;;10.30;3.30;;;;;;;17.53;94.87;95799.50;5059598;28;20251;-71
2021/08/05 03:03:52;;;;;;;10.02;3.65;;;;;;;17.74;96.20;95794.41;5060125;28;20308;-71
2021/08/05 03:06:23;;;;;;;8.75;3.65;;;;;;;17.62;96.23;95790.91;5058459;28;20657;-71
2021/08/05 03:08:51;;;;;;;9.13;4.18;;;;;;;18.10;94.67;95794.97;5059733;28;20212;-71
2021/08/05 03:11:18;;;;;;;7.97;3.88;;;;;;;17.93;95.40;95795.91;5059581;28;20201;-71
2021/08/05 03:13:44;;;;;;;9.75;4.15;;;;;;;18.07;94.94;95789.28;5060005;28;20220;-71
2021/08/05 03:16:11;;;;;;;10.88;3.80;;;;;;;18.12;94.42;95787.53;5058800;28;20216;-71
2021/08/05 03:18:38;;;;;;;6.70;3.42;;;;;;;18.21;94.17;95788.84;5058288;28;20236;-71
2021/08/05 03:21:04;;;;;;;9.55;3.50;;;;;;;18.16;93.72;95793.22;5058697;28;20216;-71
2021/08/05 03:23:31;;;;;;;7.28;3.55;;;;;;;18.24;94.72;95791.06;5059276;28;20609;-70
2021/08/05 03:25:59;;;;;;;7.60;3.45;;;;;;;18.35;94.66;95788.38;5059010;28;20216;-71
2021/08/05 03:28:25;;;;;;;8.75;3.60;;;;;;;18.26;95.15;95788.16;5059194;28;20201;-71
2021/08/05 03:30:52;;;;;;;8.57;3.25;;;;;;;18.13;95.43;95788.38;5059938;28;20200;-71
2021/08/05 03:33:18;;;;;;;11.73;3.28;;;;;;;18.05;94.07;95788.69;5058336;28;20224;-71
2021/08/05 03:35:45;;;;;;;7.68;3.20;;;;;;;18.01;94.39;95800.88;5058329;28;20676;-71
2021/08/05 03:38:11;;;;;;;7.63;3.38;;;;;;;18.04;94.63;95803.09;5060000;28;20635;-71
2021/08/05 03:40:38;;;;;;;11.05;3.15;;;;;;;18.04;95.14;95793.25;5055319;28;20193;-71
2021/08/05 03:43:06;;;;;;;13.05;3.08;;;;;;;18.13;94.91;95791.03;5058606;28;20700;-71
2021/08/05 03:45:32;;;;;;;8.43;3.45;;;;;;;18.09;94.58;95796.03;5058596;28;20201;-71
2021/08/05 03:47:59;;;;;;;6.30;3.42;;;;;;;17.68;95.24;95799.84;5059497;28;20204;-71
2021/08/05 03:50:25;;;;;;;7.47;3.33;;;;;;;17.53;95.58;95802.16;5058660;28;20204;-71
2021/08/05 03:52:52;;;;;;;11.50;3.92;;;;;;;17.43;96.75;95794.72;5058694;28;20220;-71
2021/08/05 03:55:18;;;;;;;13.13;3.60;;;;;;;17.58;96.67;95800.44;5058750;28;20219;-71
2021/08/05 03:57:47;;;;;;;17.50;3.90;;;;;;;17.81;96.16;95800.44;5058611;28;20247;-71
2021/08/05 04:00:18;;;;;;;10.95;3.90;;;;;;;17.58;96.64;95795.09;5058730;28;20262;-71
2021/08/05 04:02:44;;;;;;;10.80;4.32;;;;;;;17.38;95.80;95794.59;5058630;28;20223;-71
2021/08/05 04:05:12;;;;;;;9.55;4.45;;;;;;;17.39;97.38;95793.56;5059032;28;20239;-71
2021/08/05 04:07:39;;;;;;;17.48;5.97;;;;;;;17.43;96.32;95792.06;5058344;28;20235;-71
2021/08/05 04:10:06;;;;;;;17.10;4.93;;;;;;;17.65;95.69;95798.44;5058880;28;20209;-71
2021/08/05 04:12:33;;;;;;;13.27;4.63;;;;;;;17.63;95.09;95797.88;5058318;28;20231;-71
2021/08/05 04:14:59;;;;;;;14.13;5.07;;;;;;;17.76;95.80;95797.66;5058178;28;20213;-71
2021/08/05 04:17:27;;;;;;;8.82;5.15;;;;;;;17.34;97.45;95793.44;5057899;28;20212;-71
2021/08/05 04:19:53;;;;;;;14.60;5.30;;;;;;;17.24;97.26;95798.50;5058676;28;20196;-71
2021/08/05 04:22:20;;;;;;;11.60;5.40;;;;;;;17.54;96.25;95795.78;5057771;28;20248;-71
2021/08/05 04:24:46;;;;;;;12.02;5.78;;;;;;;17.42;97.06;95793.09;5058207;28;20584;-71
2021/08/05 04:27:13;;;;;;;9.90;5.40;;;;;;;17.48;97.05;95802.84;5058019;28;20207;-71
2021/08/05 04:29:39;;;;;;;15.82;7.00;;;;;;;17.25;98.25;95792.13;5057714;28;20204;-71
2021/08/05 04:32:06;;;;;;;11.80;6.03;;;;;;;17.22;97.80;95789.91;5058087;28;20224;-71
2021/08/05 04:34:34;;;;;;;16.67;6.22;;;;;;;17.04;99.54;95801.66;5058209;28;20224;-71
2021/08/05 04:37:00;;;;;;;15.35;6.20;;;;;;;16.91;99.77;95796.53;5057240;28;20197;-71
2021/08/05 04:39:27;;;;;;;18.52;6.57;;;;;;;17.09;99.76;95806.09;5054525;28;20200;-71
2021/08/05 04:41:54;;;;;;;13.23;6.57;;;;;;;17.02;99.86;95803.72;5058069;28;20224;-72
2021/08/05 04:44:20;;;;;;;11.98;6.18;;;;;;;17.16;98.94;95812.13;5057536;28;20196;-71
2021/08/05 04:46:47;;;;;;;15.52;7.25;;;;;;;17.00;99.54;95813.81;5057120;28;20201;-71
2021/08/05 04:49:13;;;;;;;13.02;6.22;;;;;;;17.08;99.58;95803.63;5058359;28;20201;-71
2021/08/05 04:51:41;;;;;;;14.98;6.55;;;;;;;17.28;98.88;95806.84;5057623;28;20232;-72
2021/08/05 04:54:07;;;;;;;16.08;6.60;;;;;;;17.17;98.94;95803.09;5057244;28;20224;-71
2021/08/05 04:56:34;;;;;;;12.30;6.30;;;;;;;17.08;100.00;95808.16;5057216;28;20201;-71
2021/08/05 04:59:01;;;;;;;13.60;6.25;;;;;;;17.14;99.31;95803.56;5058004;28;20203;-71
2021/08/05 05:01:27;;;;;;;15.40;6.40;;;;;;;17.19;98.93;95801.00;5057740;28;20275;-71
2021/08/05 05:03:54;;;;;;;15.35;7.38;;;;;;;17.33;98.37;95802.44;5057197;28;20207;-71
2021/08/05 05:06:20;;;;;;;13.23;6.85;;;;;;;17.29;98.56;95801.28;5057095;28;20197;-71
2021/08/05 05:08:48;;;;;;;11.68;6.63;;;;;;;17.27;98.57;95792.72;5057694;28;20200;-71
2021/08/05 05:11:15;;;;;;;13.35;6.80;;;;;;;17.17;99.45;95795.09;5056609;28;20610;-71
2021/08/05 05:13:41;;;;;;;13.88;6.75;;;;;;;17.08;100.00;95796.47;5056455;28;21108;-71
2021/08/05 05:16:07;;;;;;;16.00;7.45;;;;;;;17.42;98.99;95798.41;5056045;28;20483;-71
2021/08/05 05:18:34;;;;;;;12.45;6.97;;;;;;;17.31;99.61;95785.06;5056859;28;20200;-71
2021/08/05 05:21:01;;;;;;;14.85;7.38;;;;;;;17.28;99.84;95791.66;5056147;28;20211;-71
2021/08/05 05:23:27;;;;;;;16.05;7.35;;;;;;;16.99;100.00;95790.88;5056406;28;20399;-71
2021/08/05 05:25:55;;;;;;;14.93;8.10;;;;;;;17.49;99.35;95790.31;5055419;28;20207;-71
2021/08/05 05:28:21;;;;;;;13.82;8.07;;;;;;;17.29;100.00;95787.16;5056450;28;20207;-71
2021/08/05 05:30:48;;;;;;;18.70;8.43;;;;;;;17.57;98.65;95785.47;5056583;28;20470;-71
2021/08/05 05:33:15;;;;;;;17.45;8.13;;;;;;;17.53;98.96;95786.97;5056341;28;20577;-71
2021/08/05 05:35:42;;;;;;;16.27;8.45;;;;;;;17.79;98.07;95783.84;5055161;28;20573;-71
2021/08/05 05:38:09;;;;;;;17.33;7.93;;;;;;;17.63;99.21;95779.22;5057240;28;20196;-71
2021/08/05 05:40:36;;;;;;;13.98;8.18;;;;;;;17.71;99.44;95772.75;5053716;28;20200;-71
2021/08/05 05:43:04;;;;;;;18.27;9.52;;;;;;;17.73;97.97;95772.28;5057432;28;21309;-71
2021/08/05 05:45:32;;;;;;;20.33;7.65;;;;;;;17.58;98.76;95779.09;5056140;28;20291;-71
2021/08/05 05:48:00;;;;;;;17.23;8.00;;;;;;;17.64;98.72;95775.50;5057075;28;20196;-71
2021/08/05 05:50:28;;;;;;;15.15;8.65;;;;;;;17.77;98.39;95772.63;5056974;28;20197;-71
2021/08/05 05:52:56;;;;;;;17.50;8.07;;;;;;;17.71;98.90;95778.88;5056642;28;20720;-71
2021/08/05 05:55:23;;;;;;;14.40;8.63;;;;;;;17.61;99.13;95785.84;5056260;28;20270;-71
2021/08/05 05:57:49;;;;;;;17.02;8.63;;;;;;;17.80;98.21;95788.16;5056926;28;20212;-71
2021/08/05 06:00:17;;;;;;;18.60;8.93;;;;;;;17.76;98.96;95792.31;5057483;28;20207;-71
2021/08/05 06:02:44;;;;;;;14.23;8.13;;;;;;;17.73;98.60;95790.94;5056572;28;20216;-71
2021/08/05 06:05:11;;;;;;;18.35;8.40;;;;;;;17.85;98.58;95790.94;5056996;28;20215;-71
2021/08/05 06:07:45;;;;;;;16.08;8.65;;;;;;;18.25;96.29;95789.19;5056475;28;20587;-71
2021/08/05 06:10:13;;;;;;;16.88;9.10;;;;;;;17.86;98.49;95784.56;5057432;28;20204;-71
2021/08/05 06:12:40;;;;;;;17.55;8.90;;;;;;;17.94;98.31;95784.22;5056672;28;20216;-71
2021/08/05 06:15:07;;;;;;;16.70;8.20;;;;;;;18.31;95.88;95791.72;5057441;28;20220;-71
2021/08/05 06:17:35;;;;;;;15.70;7.80;;;;;;;18.62;94.57;95792.13;5055655;28;20212;-71
2021/08/05 06:20:01;;;;;;;15.15;8.27;;;;;;;18.77;93.25;95786.25;5057557;28;20200;-71
2021/08/05 06:22:28;;;;;;;19.65;8.38;;;;;;;18.33;94.97;95794.16;5056626;28;20228;-71
2021/08/05 06:24:54;;;;;;;12.02;7.63;;;;;;;18.17;96.30;95801.03;5056784;28;20208;-71
2021/08/05 06:27:22;;;;;;;12.10;8.05;;;;;;;18.36;95.19;95792.63;5055738;28;20197;-71
2021/08/05 06:29:49;;;;;;;12.57;7.20;;;;;;;18.02;97.45;95792.66;5057043;28;20197;-71
2021/08/05 06:32:15;;;;;;;16.60;7.60;;;;;;;18.36;95.85;95799.84;5056147;28;20622;-71
2021/08/05 06:34:43;;;;;;;14.68;7.28;;;;;;;18.42;96.41;95794.38;5056768;28;20220;-71
2021/08/05 06:37:09;;;;;;;11.80;7.72;;;;;;;18.34;96.49;95799.25;5055845;28;20211;-71
2021/08/05 06:39:36;;;;;;;14.18;8.27;;;;;;;18.65;95.85;95807.66;5053393;28;20212;-71
2021/08/05 06:42:03;;;;;;;14.55;8.52;;;;;;;18.84;95.69;95802.94;5056525;28;20239;-71
2021/08/05 06:44:34;;;;;;;17.85;8.48;;;;;;;18.81;93.49;95798.88;5058066;28;20201;-71
2021/08/05 06:47:02;;;;;;;14.57;7.88;;;;;;;18.79;92.24;95808.16;5059507;28;20605;-71
2021/08/05 06:49:29;;;;;;;11.95;7.60;;;;;;;18.77;91.08;95807.63;5060553;28;20584;-71
2021/08/05 06:51:57;;;;;;;13.25;7.50;;;;;;;18.78;92.54;95810.03;5060396;28;20223;-71
2021/08/05 06:54:23;;;;;;;15.30;7.40;;;;;;;18.65;92.01;95807.66;5060168;28;20225;-74
2021/08/05 06:56:50;;;;;;;16.35;8.25;;;;;;;18.70;92.95;95807.75;5059674;28;20209;-71
2021/08/05 06:59:16;;;;;;;13.07;7.75;;;;;;;19.17;91.56;95806.53;5060027;28;20207;-71
2021/08/05 07:01:43;;;;;;;15.90;7.38;;;;;;;19.29;91.41;95801.97;5059874;28;20750;-71
2021/08/05 07:04:11;;;;;;;14.15;7.95;;;;;;;19.25;90.94;95806.16;5059993;28;20201;-71
2021/08/05 07:06:37;;;;;;;16.25;7.97;;;;;;;19.34;89.59;95802.06;5059285;28;20204;-72
2021/08/05 07:09:05;;;;;;;15.45;7.75;;;;;;;19.51;88.61;95795.66;5059568;28;20207;-71
2021/08/05 07:11:32;;;;;;;14.68;7.80;;;;;;;19.50;88.60;95796.72;5060342;28;20220;-71
2021/08/05 07:13:58;;;;;;;17.23;7.75;;;;;;;19.49;87.41;95791.59;5059367;28;20201;-71
2021/08/05 07:16:25;;;;;;;16.35;7.72;;;;;;;19.38;87.89;95790.63;5058662;28;20238;-71
2021/08/05 07:18:51;;;;;;;13.48;7.88;;;;;;;19.47;87.47;95788.38;5059275;28;20599;-71
2021/08/05 07:21:18;;;;;;;15.05;7.32;;;;;;;19.48;87.24;95782.78;5060749;28;20224;-72
2021/08/05 07:23:44;;;;;;;13.65;7.25;;;;;;;19.71;85.79;95790.63;5059536;28;20685;-71
2021/08/05 07:26:12;;;;;;;14.35;7.47;;;;;;;19.97;85.13;95788.16;5057225;28;20239;-71
2021/08/05 07:28:39;;;;;;;11.63;7.22;;;;;;;19.55;84.54;95790.63;5058897;28;20206;-71
2021/08/05 07:31:05;;;;;;;14.70;6.85;;;;;;;19.56;86.44;95794.94;5058659;28;20656;-71
2021/08/05 07:33:32;;;;;;;13.68;7.90;;;;;;;19.29;87.76;95797.41;5059136;28;20208;-70
2021/08/05 07:35:58;;;;;;;13.88;7.68;;;;;;;20.26;84.88;95792.28;5057760;28;20475;-72
2021/08/05 07:38:25;;;;;;;12.70;7.18;;;;;;;20.06;83.95;95781.31;5058442;28;20471;-71
2021/08/05 07:40:51;;;;;;;12.15;7.03;;;;;;;20.27;82.81;95786.69;5055203;28;20205;-71
2021/08/05 07:43:19;;;;;;;13.02;7.20;;;;;;;20.67;83.02;95781.88;5057538;28;20224;-72
2021/08/05 07:45:46;;;;;;;14.43;7.50;;;;;;;20.36;84.33;95773.69;5057750;28;20560;-71
2021/08/05 07:48:12;;;;;;;18.95;7.95;;;;;;;20.39;84.30;95784.72;5058393;28;20208;-71
2021/08/05 07:50:39;;;;;;;12.43;7.03;;;;;;;20.87;82.61;95785.63;5058154;28;20211;-71
2021/08/05 07:53:05;;;;;;;14.25;6.93;;;;;;;20.80;81.77;95778.84;5058596;28;20477;-71
2021/08/05 07:55:32;;;;;;;13.30;7.60;;;;;;;20.18;82.09;95784.69;5057228;28;20224;-71
2021/08/05 07:57:58;;;;;;;12.40;7.45;;;;;;;20.61;83.21;95790.06;5058109;28;20201;-71
2021/08/05 08:00:26;;;;;;;10.98;6.35;;;;;;;20.42;82.59;95784.22;5058087;28;20617;-71
2021/08/05 08:02:53;;;;;;;17.73;7.07;;;;;;;20.52;80.45;95788.88;5058437;28;20227;-71
2021/08/05 08:05:19;;;;;;;12.98;6.72;;;;;;;20.86;80.34;95777.81;5057344;28;20200;-71
2021/08/05 08:07:46;;;;;;;14.35;7.00;;;;;;;20.67;79.52;95779.19;5058023;28;20201;-71
2021/08/05 08:10:13;;;;;;;11.20;6.13;;;;;;;20.99;79.02;95775.56;5057638;28;20200;-72
2021/08/05 08:12:41;;;;;;;13.23;6.55;;;;;;;20.94;79.34;95777.38;5057879;28;20307;-71
2021/08/05 08:15:08;;;;;;;10.27;6.63;;;;;;;20.67;79.13;95781.03;5057863;28;20228;-71
2021/08/05 08:17:37;;;;;;;13.73;6.43;;;;;;;20.79;79.04;95779.09;5057248;28;20228;-71
2021/08/05 08:20:04;;;;;;;11.52;5.93;;;;;;;20.52;79.84;95778.19;5057561;28;20204;-71
2021/08/05 08:22:31;;;;;;;14.20;6.40;;;;;;;20.79;81.28;95779.88;5057676;28;20224;-71
2021/08/05 08:24:57;;;;;;;15.57;7.15;;;;;;;20.41;81.17;95771.88;5057818;28;20193;-71
2021/08/05 08:27:24;;;;;;;14.45;7.07;;;;;;;20.44;81.91;95775.94;5057620;28;20200;-71
2021/08/05 08:29:50;;;;;;;26.85;9.57;;;;;;;20.95;81.18;95773.63;5057684;28;20220;-71
2021/08/05 08:32:17;;;;;;;13.43;7.55;;;;;;;21.02;80.92;95769.69;5057354;28;20231;-71
2021/08/05 08:34:44;;;;;;;15.35;6.85;;;;;;;20.81;78.78;95774.28;5057794;28;20220;-71
2021/08/05 08:37:11;;;;;;;12.80;6.95;;;;;;;21.11;75.78;95776.22;5056669;28;20209;-71
2021/08/05 08:39:37;;;;;;;12.63;6.60;;;;;;;20.80;76.81;95778.00;5053701;28;20196;-71
2021/08/05 08:42:04;;;;;;;14.85;6.75;;;;;;;21.09;76.62;95769.50;5056968;28;20247;-71
2021/08/05 08:44:30;;;;;;;9.63;5.97;;;;;;;21.47;74.30;95765.59;5057429;28;20211;-72
2021/08/05 08:46:58;;;;;;;11.80;6.72;;;;;;;21.73;75.94;95772.00;5056680;28;21112;-71
2021/08/05 08:49:25;;;;;;;10.05;5.80;;;;;;;22.27;74.11;95768.91;5057152;28;20676;-71
2021/08/05 08:51:56;;;;;;;11.32;6.38;;;;;;;22.53;71.30;95767.94;5056622;28;20223;-72
2021/08/05 08:54:23;;;;;;;13.00;6.63;;;;;;;23.04;71.95;95765.19;5056953;28;20203;-71
2021/08/05 08:56:52;;;;;;;11.73;6.20;;;;;;;23.03;69.50;95771.69;5055927;28;20219;-72
2021/08/05 08:59:20;;;;;;;11.63;6.07;;;;;;;22.22;68.79;95766.16;5056923;28;20466;-71
2021/08/05 09:01:47;;;;;;;11.82;6.53;;;;;;;22.44;72.25;95773.03;5057024;28;20257;-71
2021/08/05 09:04:14;;;;;;;7.68;4.07;;;;;;;21.99;70.49;95765.75;5056676;28;20204;-71
2021/08/05 09:06:42;;;;;;;7.68;5.13;;;;;;;21.60;70.38;95769.72;5055859;28;20214;-71
2021/08/05 09:09:10;;;;;;;8.77;5.28;;;;;;;21.56;70.84;95768.63;5057505;28;20209;-71
2021/08/05 09:11:37;;;;;;;8.02;4.88;;;;;;;21.65;72.94;95765.25;5056335;28;20216;-71
2021/08/05 09:14:04;;;;;;;9.10;5.72;;;;;;;21.32;71.81;95775.38;5057896;28;20212;-71
2021/08/05 09:16:32;;;;;;;12.52;5.68;;;;;;;21.64;71.84;95768.97;5056464;28;20321;-71
2021/08/05 09:19:08;;;;;;;10.13;5.60;;;;;;;21.17;72.99;95772.53;5057342;28;20199;-70
2021/08/05 09:21:35;;;;;;;10.27;5.10;;;;;;;20.94;72.89;95772.84;5056954;28;20219;-70
2021/08/05 09:24:04;;;;;;;12.63;5.50;;;;;;;21.12;74.58;95769.00;5057845;28;20201;-70
2021/08/05 09:26:36;;;;;;;10.77;6.43;;;;;;;21.13;73.37;95758.03;5055967;28;20236;-71
2021/08/05 09:29:09;;;;;;;14.23;6.05;;;;;;;21.36;72.46;95749.69;5057711;28;20219;-71
2021/08/05 09:31:38;;;;;;;10.88;5.05;;;;;;;21.46;72.71;95749.78;5054319;28;20216;-71
2021/08/05 09:34:06;;;;;;;10.00;5.13;;;;;;;21.47;72.40;95762.09;5056571;28;20196;-71
2021/08/05 09:36:33;;;;;;;7.60;4.43;;;;;;;21.44;71.50;95757.25;5055319;28;20224;-71
2021/08/05 09:39:00;;;;;;;8.82;4.47;;;;;;;21.17;72.27;95761.81;5053070;28;20205;-71
2021/08/05 09:41:26;;;;;;;7.38;4.47;;;;;;;21.19;72.76;95754.31;5055863;28;20219;-71
2021/08/05 09:44:03;;;;;;;7.97;4.35;;;;;;;21.39;73.93;95759.88;5055411;28;20193;-71
2021/08/05 09:46:31;;;;;;;8.25;4.18;;;;;;;21.42;71.39;95760.19;5055559;28;20282;-71
2021/08/05 09:48:58;;;;;;;5.43;3.83;;;;;;;21.50;72.32;95759.75;5056245;28;20200;-71
2021/08/05 09:51:25;;;;;;;5.70;3.22;;;;;;;21.84;70.77;95760.25;5055323;28;20228;-71
2021/08/05 09:54:03;;;;;;;3.85;2.40;;;;;;;21.66;68.78;95752.63;5055739;28;20200;-71
2021/08/05 09:56:31;;;;;;;5.68;2.70;;;;;;;21.62;68.82;95746.16;5054528;28;20223;-71
2021/08/05 09:59:07;;;;;;;5.38;2.70;;;;;;;22.43;69.90;95752.59;5055982;28;20211;-71
2021/08/05 10:01:34;;;;;;;5.80;2.88;;;;;;;22.41;71.13;95748.56;5056112;28;20231;-71
2021/08/05 10:04:23;;;;;;;5.15;3.00;;;;;;;22.20;67.58;95736.88;5055265;28;20211;-71
2021/08/05 10:06:56;;;;;;;5.22;2.70;;;;;;;22.28;69.72;95738.31;5054804;28;20197;-71
2021/08/05 10:09:23;;;;;;;5.13;3.05;;;;;;;22.17;68.74;95742.78;5055244;28;20228;-71
2021/08/05 10:11:49;;;;;;;7.20;3.33;;;;;;;22.86;66.04;95741.47;5055777;28;20216;-71
2021/08/05 10:14:21;;;;;;;6.40;3.10;;;;;;;23.48;67.44;95729.53;5055602;28;20200;-72
2021/08/05 10:16:49;;;;;;;4.40;2.90;;;;;;;23.44;71.40;95726.56;5055064;28;20599;-71
2021/08/05 10:19:18;;;;;;;5.90;2.40;;;;;;;23.38;67.29;95729.50;5056455;28;20201;-71
2021/08/05 10:21:46;;;;;;;3.03;1.80;;;;;;;22.86;63.12;95736.94;5059659;28;20696;-71
2021/08/05 10:24:13;;;;;;;2.60;1.88;;;;;;;22.77;62.59;95740.38;5059507;28;20215;-71
2021/08/05 10:26:40;;;;;;;3.72;1.85;;;;;;;22.60;63.99;95736.31;5059530;28;20291;-71
2021/08/05 10:29:08;;;;;;;2.20;1.65;;;;;;;23.07;61.86;95729.75;5059247;28;20211;-71
2021/08/05 10:31:39;;;;;;;3.13;1.60;;;;;;;23.58;64.96;95729.53;5059702;28;21176;-71
2021/08/05 10:34:06;;;;;;;3.38;1.90;;;;;;;23.59;62.85;95726.56;5058999;28;20236;-71
2021/08/05 10:36:33;;;;;;;4.15;1.98;;;;;;;23.79;64.79;95731.16;5058167;28;20227;-71
2021/08/05 10:38:59;;;;;;;4.15;1.77;;;;;;;23.29;63.39;95719.56;5055560;28;21252;-71
2021/08/05 10:41:28;;;;;;;2.03;1.38;;;;;;;23.04;62.35;95727.56;5059813;28;20224;-71
2021/08/05 10:43:54;;;;;;;2.75;1.40;;;;;;;23.26;62.29;95714.72;5058318;28;20215;-71
2021/08/05 10:46:21;;;;;;;3.13;1.50;;;;;;;23.54;62.93;95710.41;5058760;28;20625;-71
2021/08/05 10:48:50;;;;;;;2.10;1.65;;;;;;;23.77;62.39;95709.91;5059350;28;20203;-71
2021/08/05 10:51:16;;;;;;;2.65;1.65;;;;;;;23.36;63.36;95710.16;5059156;28;20201;-71
2021/08/05 10:53:46;;;;;;;2.58;1.67;;;;;;;24.10;60.96;95709.31;5059104;28;20292;-71
2021/08/05 10:56:24;;;;;;;4.82;2.58;;;;;;;24.25;63.43;95706.56;5058774;28;20223;-72
2021/08/05 10:59:12;;;;;;;2.45;1.58;;;;;;;24.60;60.52;95701.88;5058961;28;20283;-71
2021/08/05 11:01:53;;;;;;;1.98;1.42;;;;;;;24.73;58.96;95691.31;5058086;28;20220;-72
2021/08/05 11:04:46;;;;;;;2.33;1.40;;;;;;;25.54;59.16;95687.81;5058845;28;20287;-71
2021/08/05 11:07:31;;;;;;;3.40;1.52;;;;;;;25.72;57.55;95686.34;5058751;28;20278;-71
2021/08/05 11:10:19;;;;;;;1.65;1.30;;;;;;;26.05;57.98;95689.00;5059557;28;20211;-72
2021/08/05 11:12:49;;;;;;;2.58;1.40;;;;;;;25.74;55.37;95693.06;5059907;28;20311;-71
2021/08/05 11:15:49;;;;;;;2.30;1.35;;;;;;;25.30;57.32;95680.72;5058371;28;21087;-71
2021/08/05 11:18:20;;;;;;;2.95;1.63;;;;;;;25.49;60.79;95679.75;5059641;28;20211;-71
2021/08/05 11:21:38;;;;;;;1.58;1.48;;;;;;;25.80;54.85;95680.34;5059294;28;20728;-71
2021/08/05 11:24:05;;;;;;;2.20;1.58;;;;;;;25.18;55.70;95674.91;5057977;28;20474;-71
2021/08/05 11:26:31;;;;;;;2.17;1.45;;;;;;;24.65;58.86;95673.00;5057570;28;20278;-71
2021/08/05 11:28:58;;;;;;;1.83;1.40;;;;;;;25.16;59.60;95673.56;5058823;28;20204;-71
2021/08/05 11:31:33;;;;;;;2.40;1.60;;;;;;;25.82;56.92;95668.94;5057118;28;20231;-71
2021/08/05 11:34:07;;;;;;;2.00;1.45;;;;;;;25.24;57.20;95660.25;5058779;28;20286;-71